Time;durP1;ratioP1;P1;durP2;ratioP2;P2;SDS_P1;SDS_P2;PMS_P1;PMS_P2;Temp;Humidity;BMP_temperature;BMP_pressure;BME280_temperature;BME280_humidity;BME280_pressure;Samples;Min_cycle;Max_cycle;Signal;HPM_P1;HPM_P2
2021/08/11 00:01:18;;;;;;;7.13;5.30;;;21.00;1.00;;;;;;5033288;28;20037;-82
2021/08/11 00:03:44;;;;;;;6.80;4.93;;;21.00;1.00;;;;;;5035000;28;20028;-82
2021/08/11 00:06:09;;;;;;;7.50;4.57;;;20.90;1.00;;;;;;5034276;28;20078;-83
2021/08/11 00:08:35;;;;;;;6.20;4.90;;;20.90;1.00;;;;;;5031789;28;20456;-83
2021/08/11 00:11:00;;;;;;;6.30;4.40;;;20.80;1.00;;;;;;5037608;28;20528;-82
2021/08/11 00:13:26;;;;;;;6.72;5.10;;;20.90;1.00;;;;;;5035081;28;20013;-82
2021/08/11 00:15:53;;;;;;;8.05;5.07;;;20.70;1.00;;;;;;5034445;28;20507;-83
2021/08/11 00:18:18;;;;;;;5.82;4.78;;;20.80;1.00;;;;;;5034853;28;20485;-83
2021/08/11 00:20:44;;;;;;;8.25;4.93;;;20.80;1.00;;;;;;5030806;28;20050;-82
2021/08/11 00:23:10;;;;;;;8.70;5.05;;;20.80;1.00;;;;;;5036412;28;20021;-83
2021/08/11 00:25:36;;;;;;;8.70;5.05;;;20.70;1.00;;;;;;5034703;28;20091;-82
2021/08/11 00:28:01;;;;;;;5.70;4.72;;;20.70;1.00;;;;;;5035032;28;20021;-82
2021/08/11 00:30:27;;;;;;;6.60;4.75;;;20.70;1.00;;;;;;5033985;28;20025;-83
2021/08/11 00:32:53;;;;;;;5.65;4.85;;;20.60;1.00;;;;;;5031578;28;20075;-82
2021/08/11 00:35:18;;;;;;;6.00;4.75;;;20.60;1.00;;;;;;5034640;28;20034;-82
2021/08/11 00:37:44;;;;;;;8.88;4.88;;;20.60;1.00;;;;;;5033823;28;20029;-82
2021/08/11 00:40:13;;;;;;;7.78;4.93;;;20.50;1.00;;;;;;5032800;28;20171;-83
2021/08/11 00:42:38;;;;;;;9.93;5.15;;;20.50;1.00;;;;;;5034607;28;20087;-83
2021/08/11 00:45:05;;;;;;;9.75;5.13;;;20.40;1.00;;;;;;5031630;28;20481;-82
2021/08/11 00:47:35;;;;;;;7.88;5.18;;;20.40;1.00;;;;;;5031631;28;20048;-83
2021/08/11 00:50:01;;;;;;;8.70;5.30;;;20.50;1.00;;;;;;5036548;28;20040;-83
2021/08/11 00:52:26;;;;;;;5.75;4.88;;;20.50;1.00;;;;;;5034028;28;20509;-83
2021/08/11 00:54:53;;;;;;;5.72;5.10;;;20.40;1.00;;;;;;5034172;28;20025;-82
2021/08/11 00:57:20;;;;;;;7.28;4.88;;;20.50;1.00;;;;;;5034551;28;20036;-82
2021/08/11 00:59:49;;;;;;;5.78;4.68;;;20.40;1.00;;;;;;5029557;28;20026;-83
2021/08/11 01:02:17;;;;;;;6.38;4.75;;;20.50;1.00;;;;;;5035515;28;20030;-83
2021/08/11 01:04:44;;;;;;;5.45;4.82;;;20.50;1.00;;;;;;5033312;28;20026;-82
2021/08/11 01:07:10;;;;;;;7.25;4.63;;;20.50;1.00;;;;;;5033865;28;20083;-82
2021/08/11 01:09:37;;;;;;;5.40;4.90;;;20.30;1.00;;;;;;5034006;28;21929;-83
2021/08/11 01:12:03;;;;;;;5.20;4.70;;;20.20;1.00;;;;;;5032278;28;20029;-82
2021/08/11 01:14:30;;;;;;;9.98;5.00;;;20.30;1.00;;;;;;5031924;28;20478;-83
2021/08/11 01:16:55;;;;;;;6.25;4.57;;;20.20;1.00;;;;;;5034531;28;20026;-83
2021/08/11 01:19:21;;;;;;;9.95;5.18;;;20.20;1.00;;;;;;5032343;28;20032;-83
2021/08/11 01:21:56;;;;;;;6.20;4.63;;;20.20;1.00;;;;;;5033738;28;20425;-82
2021/08/11 01:25:01;;;;;;;7.10;4.82;;;20.10;1.00;;;;;;5033668;28;20021;-82
2021/08/11 01:27:34;;;;;;;8.88;4.93;;;20.10;1.00;;;;;;5033802;28;20028;-83
2021/08/11 01:30:11;;;;;;;8.27;4.97;;;20.10;1.00;;;;;;5031674;28;20120;-82
2021/08/11 01:32:58;;;;;;;6.78;4.63;;;20.10;1.00;;;;;;5030749;28;20025;-83
2021/08/11 01:35:30;;;;;;;5.65;4.80;;;20.10;1.00;;;;;;5043825;28;20029;-83
2021/08/11 01:37:58;;;;;;;6.93;5.20;;;20.10;1.00;;;;;;5033958;28;20022;-83
2021/08/11 01:40:28;;;;;;;6.75;4.90;;;20.10;1.00;;;;;;5033568;28;20049;-83
2021/08/11 01:42:55;;;;;;;7.72;5.18;;;20.10;1.00;;;;;;5036504;28;20021;-82
2021/08/11 01:45:24;;;;;;;5.13;4.63;;;20.10;1.00;;;;;;5038063;28;20082;-83
2021/08/11 01:48:12;;;;;;;6.82;4.85;;;20.10;1.00;;;;;;5033223;28;20416;-83
2021/08/11 01:50:41;;;;;;;10.05;5.15;;;20.20;1.00;;;;;;5034078;28;20029;-82
2021/08/11 01:53:11;;;;;;;6.45;5.47;;;20.30;1.00;;;;;;5039492;28;20022;-81
2021/08/11 01:55:38;;;;;;;7.68;5.45;;;20.20;1.00;;;;;;5036277;28;20029;-83
2021/08/11 01:58:04;;;;;;;6.50;5.15;;;20.10;1.00;;;;;;5035576;28;20025;-82
2021/08/11 02:00:31;;;;;;;8.95;5.63;;;20.00;1.00;;;;;;5037622;28;20036;-83
2021/08/11 02:02:57;;;;;;;7.15;5.15;;;20.00;1.00;;;;;;5034783;28;20114;-82
2021/08/11 02:05:24;;;;;;;6.80;5.03;;;20.10;1.00;;;;;;5036471;28;20033;-83
2021/08/11 02:07:50;;;;;;;6.68;4.82;;;20.10;1.00;;;;;;5039154;28;20101;-83
2021/08/11 02:10:18;;;;;;;6.57;5.10;;;20.10;1.00;;;;;;5037587;28;20142;-82
2021/08/11 02:12:44;;;;;;;7.35;5.13;;;20.00;1.00;;;;;;5037318;28;20029;-82
2021/08/11 02:15:10;;;;;;;8.55;5.25;;;19.90;1.00;;;;;;5036349;28;20025;-83
2021/08/11 02:17:37;;;;;;;5.63;5.00;;;19.80;1.00;;;;;;5033988;28;20037;-83
2021/08/11 02:20:06;;;;;;;5.88;5.25;;;19.70;1.00;;;;;;5039740;28;20057;-83
2021/08/11 02:22:32;;;;;;;6.30;5.13;;;19.70;1.00;;;;;;5036694;28;20029;-82
2021/08/11 02:24:58;;;;;;;8.15;5.22;;;19.70;1.00;;;;;;5036853;28;20074;-83
2021/08/11 02:27:31;;;;;;;6.28;5.20;;;19.70;1.00;;;;;;5036846;28;20029;-83
2021/08/11 02:30:10;;;;;;;7.07;5.32;;;19.60;1.00;;;;;;5034237;28;20030;-83
2021/08/11 02:32:41;;;;;;;6.90;4.80;;;19.60;1.00;;;;;;5033603;28;20052;-83
2021/08/11 02:35:18;;;;;;;8.32;5.57;;;19.60;1.00;;;;;;5038781;28;20025;-83
2021/08/11 02:37:54;;;;;;;8.32;5.03;;;19.50;1.00;;;;;;5036343;28;20076;-83
2021/08/11 02:40:44;;;;;;;8.10;5.22;;;19.50;1.00;;;;;;5036943;28;20041;-83
2021/08/11 02:43:34;;;;;;;6.22;5.15;;;19.50;1.00;;;;;;5036575;28;20024;-82
2021/08/11 02:46:06;;;;;;;7.32;5.43;;;19.50;1.00;;;;;;5036550;28;20136;-83
2021/08/11 02:48:34;;;;;;;7.00;5.20;;;19.60;1.00;;;;;;5036591;28;20546;-82
2021/08/11 02:51:02;;;;;;;6.22;5.25;;;19.60;1.00;;;;;;5034722;28;20033;-83
2021/08/11 02:53:28;;;;;;;7.22;5.28;;;19.60;1.00;;;;;;5033947;28;20026;-83
2021/08/11 02:55:55;;;;;;;6.22;5.57;;;19.60;1.00;;;;;;5035963;28;20090;-83
2021/08/11 02:58:22;;;;;;;8.20;5.80;;;19.60;1.00;;;;;;5036994;28;20428;-83
2021/08/11 03:00:49;;;;;;;7.20;5.28;;;19.60;1.00;;;;;;5036171;28;20374;-82
2021/08/11 03:03:16;;;;;;;5.47;4.97;;;19.70;1.00;;;;;;5035829;28;20115;-82
2021/08/11 03:05:42;;;;;;;8.95;5.30;;;19.60;1.00;;;;;;5016165;28;20025;-82
2021/08/11 03:08:08;;;;;;;6.18;4.90;;;19.60;1.00;;;;;;5054568;28;20044;-83
2021/08/11 03:10:37;;;;;;;7.15;5.10;;;19.60;1.00;;;;;;5036626;28;20125;-83
2021/08/11 03:13:04;;;;;;;8.75;4.95;;;19.60;1.00;;;;;;5034622;28;20128;-83
2021/08/11 03:15:31;;;;;;;9.32;5.28;;;19.60;1.00;;;;;;5034889;28;20078;-83
2021/08/11 03:17:57;;;;;;;5.20;4.75;;;19.50;1.00;;;;;;5033149;28;20370;-83
2021/08/11 03:20:23;;;;;;;7.55;5.30;;;19.40;1.00;;;;;;5035225;28;20081;-83
2021/08/11 03:22:48;;;;;;;7.65;5.15;;;19.50;1.00;;;;;;5036996;28;20029;-83
2021/08/11 03:25:14;;;;;;;6.18;5.10;;;19.40;1.00;;;;;;5035863;28;20511;-83
2021/08/11 03:27:40;;;;;;;9.98;5.20;;;19.50;1.00;;;;;;5034853;28;20030;-83
2021/08/11 03:30:06;;;;;;;8.25;5.75;;;19.50;1.00;;;;;;5034108;28;20013;-83
2021/08/11 03:32:32;;;;;;;6.75;5.28;;;19.30;1.00;;;;;;5033410;28;20045;-83
2021/08/11 03:34:57;;;;;;;11.13;5.43;;;19.30;1.00;;;;;;5037787;28;20037;-82
2021/08/11 03:37:23;;;;;;;7.85;5.25;;;19.30;1.00;;;;;;5035629;28;20036;-83
2021/08/11 03:39:49;;;;;;;8.80;5.43;;;19.30;1.00;;;;;;5035140;28;20152;-82
2021/08/11 03:42:14;;;;;;;7.03;5.25;;;19.30;1.00;;;;;;5035745;28;20115;-83
2021/08/11 03:44:40;;;;;;;9.52;5.60;;;19.30;1.00;;;;;;5032406;28;20034;-83
2021/08/11 03:47:06;;;;;;;10.40;5.80;;;19.40;1.00;;;;;;5037455;28;20108;-82
2021/08/11 03:49:32;;;;;;;6.28;5.60;;;19.30;1.00;;;;;;5035425;28;20021;-82
2021/08/11 03:51:57;;;;;;;7.15;5.63;;;19.30;1.00;;;;;;5034297;28;20025;-83
2021/08/11 03:54:23;;;;;;;6.30;5.50;;;19.30;1.00;;;;;;5033397;28;20063;-83
2021/08/11 03:56:49;;;;;;;9.90;5.35;;;19.30;1.00;;;;;;5031948;28;20033;-82
2021/08/11 03:59:14;;;;;;;6.38;5.63;;;19.30;1.00;;;;;;5036227;28;20508;-83
2021/08/11 04:01:40;;;;;;;5.97;5.18;;;19.20;1.00;;;;;;5035543;28;20370;-83
2021/08/11 04:04:05;;;;;;;7.95;5.80;;;19.20;1.00;;;;;;5034851;28;20022;-83
2021/08/11 04:06:31;;;;;;;6.78;5.70;;;19.20;1.00;;;;;;5035825;28;20031;-83
2021/08/11 04:08:57;;;;;;;6.07;5.38;;;19.20;1.00;;;;;;5032559;28;20108;-83
2021/08/11 04:11:22;;;;;;;10.23;5.88;;;19.10;1.00;;;;;;5034179;28;20448;-83
2021/08/11 04:13:52;;;;;;;6.45;5.38;;;19.20;1.00;;;;;;5036253;28;20033;-83
2021/08/11 04:16:17;;;;;;;7.47;5.40;;;19.00;1.00;;;;;;5034886;28;20036;-82
2021/08/11 04:18:43;;;;;;;6.97;5.50;;;19.00;1.00;;;;;;5034757;28;20420;-83
2021/08/11 04:21:09;;;;;;;6.60;5.15;;;18.90;1.00;;;;;;5035723;28;20029;-82
2021/08/11 04:23:34;;;;;;;6.05;5.25;;;18.90;1.00;;;;;;5031431;28;20034;-82
2021/08/11 04:26:00;;;;;;;6.60;5.18;;;18.90;1.00;;;;;;5037264;28;20116;-82
2021/08/11 04:28:26;;;;;;;7.57;5.50;;;18.90;1.00;;;;;;5035301;28;20477;-82
2021/08/11 04:30:52;;;;;;;5.85;5.05;;;18.90;1.00;;;;;;5033209;28;20170;-83
2021/08/11 04:33:18;;;;;;;7.57;5.57;;;18.90;1.00;;;;;;5033519;28;20032;-83
2021/08/11 04:35:44;;;;;;;6.00;5.15;;;18.80;1.00;;;;;;5030521;28;20034;-83
2021/08/11 04:38:10;;;;;;;10.10;5.30;;;18.90;1.00;;;;;;5036300;28;20033;-82
2021/08/11 04:40:36;;;;;;;8.73;5.68;;;18.80;1.00;;;;;;5034227;28;20076;-83
2021/08/11 04:43:03;;;;;;;7.50;5.22;;;18.90;1.00;;;;;;5032081;28;20162;-83
2021/08/11 04:45:29;;;;;;;6.47;5.32;;;18.90;1.00;;;;;;5034280;28;20393;-83
2021/08/11 04:47:54;;;;;;;6.57;5.78;;;18.90;1.00;;;;;;5031460;28;20028;-83
2021/08/11 04:50:20;;;;;;;6.95;5.72;;;18.90;1.00;;;;;;5034332;28;20026;-83
2021/08/11 04:52:45;;;;;;;6.63;6.03;;;18.90;1.00;;;;;;5034935;28;20602;-83
2021/08/11 04:55:14;;;;;;;6.05;5.38;;;19.00;1.00;;;;;;5034667;28;20033;-82
2021/08/11 04:57:40;;;;;;;6.00;5.40;;;19.00;1.00;;;;;;5034213;28;20516;-82
2021/08/11 05:00:07;;;;;;;6.72;6.05;;;19.00;1.00;;;;;;5033045;28;20041;-83
2021/08/11 05:02:32;;;;;;;7.28;5.57;;;19.10;1.00;;;;;;5031206;28;20039;-83
2021/08/11 05:04:58;;;;;;;9.20;5.20;;;19.10;1.00;;;;;;5036107;28;20092;-82
2021/08/11 05:07:25;;;;;;;6.93;5.55;;;19.10;1.00;;;;;;5033919;28;20063;-83
2021/08/11 05:09:50;;;;;;;5.70;5.07;;;19.10;1.00;;;;;;5033039;28;20028;-82
2021/08/11 05:12:16;;;;;;;7.22;5.22;;;19.20;1.00;;;;;;5032363;28;20028;-83
2021/08/11 05:14:42;;;;;;;8.40;5.60;;;19.10;1.00;;;;;;5014386;28;20029;-83
2021/08/11 05:17:07;;;;;;;6.32;5.15;;;19.20;1.00;;;;;;5036032;28;20525;-82
2021/08/11 05:19:34;;;;;;;9.65;5.35;;;19.20;1.00;;;;;;5033551;28;20029;-82
2021/08/11 05:22:00;;;;;;;9.60;5.45;;;19.10;1.00;;;;;;5034224;28;20429;-82
2021/08/11 05:24:25;;;;;;;10.23;5.82;;;19.30;1.00;;;;;;5034182;28;20013;-82
2021/08/11 05:26:51;;;;;;;8.38;5.68;;;19.30;1.00;;;;;;5030435;28;20420;-83
2021/08/11 05:29:20;;;;;;;7.53;5.40;;;19.30;1.00;;;;;;5034405;28;20540;-82
2021/08/11 05:31:46;;;;;;;9.85;5.68;;;19.30;1.00;;;;;;5034106;28;20037;-83
2021/08/11 05:34:12;;;;;;;7.45;6.00;;;19.40;1.00;;;;;;5034251;28;20113;-83
2021/08/11 05:36:37;;;;;;;6.38;5.78;;;19.40;1.00;;;;;;5033233;28;20116;-83
2021/08/11 05:39:03;;;;;;;8.65;5.28;;;19.50;1.00;;;;;;5031840;28;20030;-83
2021/08/11 05:41:29;;;;;;;10.63;5.68;;;19.40;1.00;;;;;;5030971;28;20040;-82
2021/08/11 05:43:55;;;;;;;7.60;5.57;;;19.60;1.00;;;;;;5036546;28;20473;-87
2021/08/11 05:46:20;;;;;;;8.13;5.65;;;19.60;1.00;;;;;;5033540;28;20030;-87
2021/08/11 05:48:46;;;;;;;9.68;6.00;;;19.70;1.00;;;;;;5032329;28;20032;-86
2021/08/11 05:51:13;;;;;;;6.88;5.25;;;19.70;1.00;;;;;;5031521;28;20481;-87
2021/08/11 05:53:39;;;;;;;7.03;5.38;;;19.70;1.00;;;;;;5030216;28;20052;-87
2021/08/11 05:56:05;;;;;;;9.50;5.47;;;19.70;1.00;;;;;;5035509;28;20026;-87
2021/08/11 05:58:32;;;;;;;8.02;5.90;;;19.80;1.00;;;;;;5033767;28;20397;-87
2021/08/11 06:00:58;;;;;;;8.40;5.15;;;19.80;1.00;;;;;;5032050;28;20095;-87
2021/08/11 06:03:23;;;;;;;7.00;5.38;;;19.90;1.00;;;;;;5033473;28;20024;-87
2021/08/11 06:05:49;;;;;;;7.00;5.40;;;20.10;1.00;;;;;;5029697;28;20029;-86
2021/08/11 06:08:15;;;;;;;7.20;5.40;;;20.10;1.00;;;;;;5035066;28;20478;-85
2021/08/11 06:10:41;;;;;;;7.32;5.05;;;20.20;1.00;;;;;;5033926;28;20562;-86
2021/08/11 06:13:06;;;;;;;6.70;5.63;;;20.20;1.00;;;;;;5033200;28;20029;-86
2021/08/11 06:15:32;;;;;;;8.27;5.30;;;20.20;1.00;;;;;;5032067;28;20021;-84
2021/08/11 06:17:58;;;;;;;9.70;5.43;;;20.30;1.00;;;;;;5030686;28;20435;-84
2021/08/11 06:20:23;;;;;;;9.82;5.68;;;20.30;1.00;;;;;;5031914;28;20133;-84
2021/08/11 06:22:50;;;;;;;7.03;5.68;;;20.40;1.00;;;;;;5034305;28;20489;-85
2021/08/11 06:25:16;;;;;;;7.68;5.32;;;20.40;1.00;;;;;;5026131;28;20021;-84
2021/08/11 06:27:42;;;;;;;9.95;5.65;;;20.40;1.00;;;;;;5032015;28;20108;-84
2021/08/11 06:30:10;;;;;;;9.55;6.00;;;20.50;1.00;;;;;;5035970;28;20028;-84
2021/08/11 06:32:36;;;;;;;6.50;5.80;;;20.60;1.00;;;;;;5033266;28;20806;-85
2021/08/11 06:35:02;;;;;;;8.52;5.68;;;20.60;1.00;;;;;;5038852;28;20032;-85
2021/08/11 06:37:28;;;;;;;8.63;5.57;;;20.70;1.00;;;;;;5036890;28;20033;-86
2021/08/11 06:39:54;;;;;;;9.35;5.45;;;20.70;1.00;;;;;;5036033;28;20112;-86
2021/08/11 06:42:19;;;;;;;7.72;5.90;;;20.80;1.00;;;;;;5036387;28;20033;-86
2021/08/11 06:44:45;;;;;;;8.10;5.50;;;21.00;1.00;;;;;;5032665;28;20028;-86
2021/08/11 06:47:10;;;;;;;6.90;5.43;;;21.00;1.00;;;;;;5038161;28;20033;-86
2021/08/11 06:49:36;;;;;;;8.85;6.25;;;21.10;1.00;;;;;;5036426;28;20095;-86
2021/08/11 06:52:02;;;;;;;9.63;5.90;;;21.10;1.00;;;;;;5042422;28;20482;-86
2021/08/11 06:54:27;;;;;;;8.15;5.68;;;21.20;1.00;;;;;;5046222;28;20028;-85
2021/08/11 06:56:54;;;;;;;9.70;6.03;;;21.30;1.00;;;;;;5032971;28;20104;-86
2021/08/11 06:59:20;;;;;;;8.13;5.60;;;21.40;1.00;;;;;;5034797;28;20040;-86
2021/08/11 07:01:45;;;;;;;6.60;5.43;;;21.50;1.00;;;;;;5036596;28;20037;-86
2021/08/11 07:04:11;;;;;;;7.45;5.28;;;21.60;1.00;;;;;;5034818;28;20048;-85
2021/08/11 07:06:40;;;;;;;8.10;5.78;;;21.60;1.00;;;;;;5034379;28;20128;-86
2021/08/11 07:09:06;;;;;;;6.03;5.43;;;21.60;1.00;;;;;;5032748;28;20060;-86
2021/08/11 07:11:32;;;;;;;8.48;5.95;;;21.80;1.00;;;;;;5033150;28;20025;-86
2021/08/11 07:13:58;;;;;;;9.95;5.88;;;21.80;1.00;;;;;;5037506;28;20029;-86
2021/08/11 07:16:23;;;;;;;6.70;5.25;;;22.00;1.00;;;;;;5036155;28;20025;-86
2021/08/11 07:18:49;;;;;;;6.82;5.78;;;21.90;1.00;;;;;;5035732;28;20064;-85
2021/08/11 07:21:15;;;;;;;8.68;5.70;;;22.00;1.00;;;;;;5035440;28;20135;-86
2021/08/11 07:23:40;;;;;;;9.05;5.60;;;22.10;1.00;;;;;;5031282;28;20029;-86
2021/08/11 07:26:08;;;;;;;10.10;6.10;;;22.10;1.00;;;;;;5036480;28;20040;-86
2021/08/11 07:28:34;;;;;;;8.80;5.30;;;22.30;1.00;;;;;;5035045;28;20033;-86
2021/08/11 07:30:59;;;;;;;7.97;5.55;;;22.40;1.00;;;;;;5035381;28;20597;-86
2021/08/11 07:33:25;;;;;;;9.75;5.30;;;22.40;1.00;;;;;;5036159;28;20055;-86
2021/08/11 07:35:51;;;;;;;8.27;5.38;;;22.50;1.00;;;;;;5031916;28;20029;-86
2021/08/11 07:38:17;;;;;;;7.43;5.72;;;22.60;1.00;;;;;;5035210;28;20555;-86
2021/08/11 07:40:44;;;;;;;7.10;5.65;;;22.70;1.00;;;;;;5034384;28;20033;-86
2021/08/11 07:43:10;;;;;;;6.68;4.95;;;22.70;1.00;;;;;;5035454;28;20072;-88
2021/08/11 07:45:35;;;;;;;8.20;5.53;;;22.80;1.00;;;;;;5034531;28;20374;-86
2021/08/11 07:48:01;;;;;;;7.70;5.53;;;22.80;1.00;;;;;;5033351;28;20036;-87
2021/08/11 07:50:30;;;;;;;7.03;5.03;;;22.80;1.00;;;;;;5033179;28;20026;-87
2021/08/11 07:52:56;;;;;;;7.13;5.55;;;23.00;1.00;;;;;;5035417;28;20538;-87
2021/08/11 07:55:22;;;;;;;7.18;5.18;;;23.10;99.90;;;;;;5034985;28;20026;-87
2021/08/11 07:57:48;;;;;;;5.93;5.18;;;23.10;99.90;;;;;;5035192;28;20529;-87
2021/08/11 08:00:16;;;;;;;7.18;5.07;;;23.20;99.90;;;;;;5034273;28;20040;-87
2021/08/11 08:02:42;;;;;;;6.68;5.03;;;23.20;99.90;;;;;;5030385;28;20033;-87
2021/08/11 08:05:09;;;;;;;6.57;4.93;;;23.30;99.90;;;;;;5037031;28;20029;-87
2021/08/11 08:07:35;;;;;;;9.77;5.22;;;23.50;99.90;;;;;;5033848;28;20029;-87
2021/08/11 08:10:02;;;;;;;6.55;5.18;;;23.60;99.90;;;;;;5034874;28;20108;-87
2021/08/11 08:12:28;;;;;;;7.60;5.80;;;23.60;99.90;;;;;;5035020;28;20029;-89
2021/08/11 08:14:54;;;;;;;8.57;5.40;;;23.70;99.90;;;;;;5031234;28;20120;-87
2021/08/11 08:17:19;;;;;;;6.88;5.63;;;23.90;99.90;;;;;;5033425;28;20108;-87
2021/08/11 08:19:45;;;;;;;7.15;5.18;;;24.10;99.90;;;;;;5034838;28;20037;-87
2021/08/11 08:22:11;;;;;;;6.30;5.60;;;24.30;99.90;;;;;;5033032;28;20482;-87
2021/08/11 08:24:36;;;;;;;6.30;5.50;;;24.30;99.90;;;;;;5032938;28;20512;-87
2021/08/11 08:27:02;;;;;;;8.07;5.90;;;24.40;99.90;;;;;;5030969;28;20040;-87
2021/08/11 08:29:28;;;;;;;6.88;5.50;;;24.50;99.90;;;;;;5031418;28;20425;-87
2021/08/11 08:31:54;;;;;;;10.50;5.20;;;24.40;99.90;;;;;;5036840;28;20029;-87
2021/08/11 08:34:20;;;;;;;6.68;5.80;;;24.50;99.90;;;;;;5034841;28;20025;-86
2021/08/11 08:36:46;;;;;;;7.40;5.40;;;24.60;99.90;;;;;;5033934;28;20099;-87
2021/08/11 08:39:11;;;;;;;7.75;6.00;;;24.60;99.90;;;;;;5033109;28;20029;-87
2021/08/11 08:41:39;;;;;;;6.15;5.55;;;24.70;99.90;;;;;;5031190;28;20044;-87
2021/08/11 08:44:06;;;;;;;7.93;6.00;;;24.80;99.90;;;;;;5035732;28;20512;-87
2021/08/11 08:46:32;;;;;;;9.98;6.10;;;24.90;99.90;;;;;;5034276;28;20029;-87
2021/08/11 08:48:58;;;;;;;9.40;5.70;;;24.90;99.90;;;;;;5033807;28;20029;-87
2021/08/11 08:51:25;;;;;;;7.63;5.78;;;25.10;99.90;;;;;;5033761;28;20069;-87
2021/08/11 08:53:51;;;;;;;6.10;5.32;;;25.30;99.90;;;;;;5029407;28;20060;-87
2021/08/11 08:56:17;;;;;;;7.80;5.70;;;25.30;99.90;;;;;;5035251;28;20030;-87
2021/08/11 08:58:43;;;;;;;8.18;5.40;;;25.40;99.90;;;;;;5034358;28;20099;-86
2021/08/11 09:01:09;;;;;;;8.63;6.30;;;25.50;99.90;;;;;;5033712;28;20040;-87
2021/08/11 09:03:35;;;;;;;8.43;5.85;;;25.50;99.90;;;;;;5032315;28;20029;-86
2021/08/11 09:06:01;;;;;;;9.00;5.53;;;25.50;99.90;;;;;;5032848;28;20535;-86
2021/08/11 09:08:28;;;;;;;8.20;5.60;;;25.70;99.90;;;;;;5032456;28;20029;-87
2021/08/11 09:10:54;;;;;;;6.40;5.18;;;25.80;99.90;;;;;;5036222;28;20037;-86
2021/08/11 09:13:22;;;;;;;5.95;5.35;;;25.90;99.90;;;;;;5033681;28;20021;-86
2021/08/11 09:15:53;;;;;;;7.18;5.40;;;26.10;99.90;;;;;;5032920;28;20511;-86
2021/08/11 09:18:21;;;;;;;6.93;5.40;;;26.20;99.90;;;;;;5033641;28;20056;-87
2021/08/11 09:21:10;;;;;;;7.60;6.10;;;26.30;99.90;;;;;;5029387;28;20053;-86
2021/08/11 09:23:40;;;;;;;9.40;6.25;;;26.30;99.90;;;;;;5030982;28;20056;-86
2021/08/11 09:26:11;;;;;;;6.97;6.30;;;26.40;99.90;;;;;;5035976;28;20485;-86
2021/08/11 09:28:39;;;;;;;10.38;6.47;;;26.30;99.90;;;;;;5033294;28;20025;-86
2021/08/11 09:31:26;;;;;;;7.45;6.53;;;26.30;99.90;;;;;;5033990;28;20047;-87
2021/08/11 09:33:54;;;;;;;8.90;5.78;;;26.20;99.90;;;;;;5034375;28;20097;-87
2021/08/11 09:36:20;;;;;;;8.68;6.20;;;26.30;99.90;;;;;;5033310;28;20111;-87
2021/08/11 09:38:57;;;;;;;7.05;6.15;;;26.30;99.90;;;;;;5030074;28;20133;-87
2021/08/11 09:41:25;;;;;;;8.82;5.78;;;26.40;99.90;;;;;;5041876;28;20444;-87
2021/08/11 09:44:03;;;;;;;7.60;6.28;;;26.50;99.90;;;;;;5032825;28;20080;-87
2021/08/11 09:46:30;;;;;;;7.07;5.93;;;26.60;99.90;;;;;;5031796;28;20061;-87
2021/08/11 09:48:56;;;;;;;6.22;5.35;;;26.80;99.90;;;;;;5034378;28;20025;-86
2021/08/11 09:51:21;;;;;;;8.48;5.75;;;26.80;99.90;;;;;;5033645;28;20025;-86
2021/08/11 09:53:47;;;;;;;7.78;5.80;;;27.00;99.90;;;;;;5028872;28;20029;-87
2021/08/11 09:56:13;;;;;;;5.97;5.38;;;27.10;99.90;;;;;;5035179;28;20021;-86
2021/08/11 09:59:00;;;;;;;6.90;5.13;;;26.90;99.90;;;;;;5033954;28;20116;-86
2021/08/11 10:01:27;;;;;;;7.97;5.60;;;27.20;99.90;;;;;;5033269;28;20041;-87
2021/08/11 10:04:00;;;;;;;5.97;5.38;;;27.10;99.90;;;;;;5036144;28;20018;-86
2021/08/11 10:06:32;;;;;;;6.95;5.50;;;27.30;99.90;;;;;;5037473;28;20029;-86
2021/08/11 10:09:23;;;;;;;7.22;5.35;;;27.40;99.90;;;;;;5034542;28;20059;-87
2021/08/11 10:11:57;;;;;;;5.95;5.35;;;27.30;99.90;;;;;;5017837;28;20548;-86
2021/08/11 10:14:28;;;;;;;6.38;5.45;;;27.60;99.90;;;;;;5037082;28;20063;-87
2021/08/11 10:16:57;;;;;;;6.45;5.10;;;27.70;99.90;;;;;;5039029;28;20048;-86
2021/08/11 10:19:24;;;;;;;6.00;5.25;;;27.80;99.90;;;;;;5037222;28;20037;-86
2021/08/11 10:21:59;;;;;;;7.57;5.45;;;27.70;99.90;;;;;;5035916;28;20547;-87
2021/08/11 10:24:26;;;;;;;7.40;5.70;;;27.60;99.90;;;;;;5036017;28;20066;-87
2021/08/11 10:26:52;;;;;;;8.63;5.00;;;27.70;99.90;;;;;;5033330;28;20041;-87
2021/08/11 10:29:21;;;;;;;5.72;5.10;;;27.90;99.90;;;;;;5037460;28;20037;-87
2021/08/11 10:31:47;;;;;;;8.50;5.35;;;27.90;99.90;;;;;;5036637;28;20025;-86
2021/08/11 10:34:15;;;;;;;7.53;5.13;;;27.90;99.90;;;;;;5037316;28;20017;-86
2021/08/11 10:36:45;;;;;;;5.72;5.20;;;27.80;99.90;;;;;;5036746;28;20033;-86
2021/08/11 10:39:14;;;;;;;6.82;4.95;;;28.10;99.90;;;;;;5035429;28;20021;-83
2021/08/11 10:41:39;;;;;;;5.93;5.25;;;28.10;99.90;;;;;;5032384;28;20072;-84
2021/08/11 10:44:14;;;;;;;7.13;5.32;;;28.00;99.90;;;;;;5038745;28;20045;-83
2021/08/11 10:46:43;;;;;;;6.35;5.10;;;28.20;99.90;;;;;;5036717;28;20035;-84
2021/08/11 10:49:17;;;;;;;6.68;5.10;;;28.40;99.90;;;;;;5036687;28;20489;-83
2021/08/11 10:51:50;;;;;;;5.80;5.20;;;28.70;99.90;;;;;;5036358;28;20121;-83
2021/08/11 10:54:17;;;;;;;7.88;5.10;;;29.10;99.90;;;;;;5035948;28;20043;-83
2021/08/11 10:56:43;;;;;;;6.20;4.93;;;29.60;99.90;;;;;;5032173;28;20061;-83
2021/08/11 10:59:34;;;;;;;6.40;5.15;;;31.30;99.90;;;;;;5039286;28;20392;-84
2021/08/11 11:02:00;;;;;;;5.50;5.00;;;35.10;99.90;;;;;;5038223;28;20053;-84
2021/08/11 11:04:42;;;;;;;7.43;5.60;;;38.00;99.90;;;;;;5034593;28;20037;-84
2021/08/11 11:07:20;;;;;;;7.28;5.20;;;39.90;99.90;;;;;;5036935;28;20377;-83
2021/08/11 11:09:48;;;;;;;5.35;4.88;;;41.40;99.90;;;;;;5035844;28;20053;-83
2021/08/11 11:12:16;;;;;;;5.30;4.80;;;42.50;99.90;;;;;;5035784;28;20028;-84
2021/08/11 11:15:01;;;;;;;6.05;5.38;;;43.30;99.90;;;;;;5032837;28;20770;-84
2021/08/11 11:17:28;;;;;;;6.82;5.03;;;42.70;99.90;;;;;;5046311;28;20028;-84
2021/08/11 11:20:03;;;;;;;6.07;4.75;;;43.40;99.90;;;;;;5037474;28;20077;-84
2021/08/11 11:22:40;;;;;;;6.13;4.97;;;44.40;99.90;;;;;;5035925;28;20485;-84
2021/08/11 11:25:10;;;;;;;7.65;4.55;;;43.90;99.90;;;;;;5035927;28;20035;-84
2021/08/11 11:27:39;;;;;;;5.60;5.10;;;44.50;99.90;;;;;;5035875;28;20036;-84
2021/08/11 11:30:30;;;;;;;6.00;5.05;;;44.20;99.90;;;;;;5032639;28;20025;-83
2021/08/11 11:33:18;;;;;;;6.05;4.97;;;45.20;99.90;;;;;;5018549;28;20405;-84
2021/08/11 11:35:44;;;;;;;5.55;4.55;;;45.30;99.90;;;;;;5015677;28;20421;-84
2021/08/11 11:38:14;;;;;;;5.20;4.80;;;44.70;99.90;;;;;;5037408;28;20543;-84
2021/08/11 11:40:54;;;;;;;5.75;4.70;;;43.90;99.90;;;;;;5034579;28;20045;-84
2021/08/11 11:43:30;;;;;;;5.10;4.70;;;43.50;99.90;;;;;;5033819;28;20108;-84
2021/08/11 11:45:57;;;;;;;5.65;4.70;;;44.50;99.90;;;;;;5035964;28;20033;-84
2021/08/11 11:48:24;;;;;;;9.32;4.57;;;43.70;99.90;;;;;;5035746;28;20021;-84
2021/08/11 11:51:11;;;;;;;5.47;4.90;;;44.30;99.90;;;;;;5031634;28;20034;-84
2021/08/11 11:53:37;;;;;;;5.88;5.28;;;44.50;99.90;;;;;;5031508;28;20042;-85
2021/08/11 11:56:11;;;;;;;4.93;4.50;;;44.90;99.90;;;;;;5037706;28;20037;-85
2021/08/11 11:58:42;;;;;;;5.15;4.65;;;46.00;99.90;;;;;;5035207;28;20040;-85
2021/08/11 12:01:10;;;;;;;6.00;4.38;;;46.50;99.90;;;;;;5035151;28;20577;-84
2021/08/11 12:03:50;;;;;;;7.18;4.25;;;46.40;99.90;;;;;;5035689;28;20087;-85
2021/08/11 12:06:32;;;;;;;5.32;4.57;;;46.70;99.90;;;;;;5034706;28;20025;-85
2021/08/11 12:08:57;;;;;;;5.10;4.70;;;47.00;99.90;;;;;;5018512;28;20040;-85
2021/08/11 12:11:26;;;;;;;5.38;4.47;;;46.50;99.90;;;;;;5033532;28;20029;-85
2021/08/11 12:13:52;;;;;;;6.68;4.47;;;46.20;99.90;;;;;;5036300;28;20517;-84
2021/08/11 12:16:19;;;;;;;5.00;4.50;;;46.60;99.90;;;;;;5035925;28;20068;-85
2021/08/11 12:18:50;;;;;;;6.60;4.30;;;46.70;99.90;;;;;;5033891;28;20393;-85
2021/08/11 12:21:20;;;;;;;4.57;4.10;;;47.40;99.90;;;;;;5032380;28;20433;-85
2021/08/11 12:23:50;;;;;;;4.88;4.43;;;47.40;99.90;;;;;;5015118;28;20449;-85
2021/08/11 12:26:16;;;;;;;4.47;4.07;;;46.50;99.90;;;;;;5043948;28;20112;-85
2021/08/11 12:28:47;;;;;;;7.07;4.15;;;46.30;99.90;;;;;;5033608;28;20040;-84
2021/08/11 12:31:20;;;;;;;6.30;4.03;;;46.00;99.90;;;;;;5034990;28;20017;-84
2021/08/11 12:33:47;;;;;;;5.60;4.13;;;45.90;99.90;;;;;;5034657;28;20064;-85
2021/08/11 12:36:21;;;;;;;4.90;4.07;;;45.60;99.90;;;;;;5033656;28;20112;-85
2021/08/11 12:39:18;;;;;;;5.68;4.18;;;45.40;99.90;;;;;;5014603;28;20288;-85
2021/08/11 12:41:46;;;;;;;4.55;4.13;;;45.50;99.90;;;;;;5029827;28;20520;-84
2021/08/11 12:44:22;;;;;;;4.82;4.07;;;45.30;99.90;;;;;;5043813;28;20028;-85
2021/08/11 12:46:50;;;;;;;6.85;4.30;;;45.10;99.90;;;;;;5034435;28;20559;-85
2021/08/11 12:49:29;;;;;;;4.10;3.70;;;45.00;99.90;;;;;;5034915;28;20025;-85
2021/08/11 12:52:04;;;;;;;4.65;4.00;;;45.10;99.90;;;;;;5033910;28;20029;-84
2021/08/11 12:54:49;;;;;;;5.18;4.35;;;45.20;99.90;;;;;;5034203;28;20437;-85
2021/08/11 12:57:15;;;;;;;5.18;4.15;;;44.30;99.90;;;;;;5032877;28;20047;-84
2021/08/11 12:59:51;;;;;;;4.07;3.67;;;44.80;99.90;;;;;;5030923;28;20076;-84